KRNO/RNO METAR and TAF weather

Enter ICAO airport designator
Station Type Date Time Source
KRNO METAR 2019/10/22 15:55 UTC NOAA

KRNO 221555Z 00000KT 10SM FEW120 BKN250 07/M02 A3046 RMK AO2 SLP298 T00671022


Station Type Date Time Source
KRNO Decoded METAR 2019/10/22 15:55 UTC NOAA

RENO/TAHOE INTERNATIONAL AIRPORT, NV, United States (KRNO) 39-29N 119-46W 1342M
Oct 22, 2019 - 11:55 AM EDT / 2019.10.22 1555 UTC
Wind: Calm:0
Visibility: 10 mile(s):0
Sky conditions: mostly cloudy
Temperature: 44.1 F (6.7 C)
Dew Point: 28.0 F (-2.2 C)
Relative Humidity: 52%
Pressure (altimeter): 30.46 in. Hg (1031 hPa)
ob: KRNO 221555Z 00000KT 10SM FEW120 BKN250 07/M02 A3046 RMK AO2 SLP298 T00671022
cycle: 16

Station Type Date Time Source
KRNO TAF 2019/10/22 12:30 UTC NOAA

TAF KRNO 221128Z 2212/2312 VRB04KT P6SM SKC
FM221900 06007KT P6SM SCT200
FM230300 VRB03KT P6SM SCT200

Example: see airport list